sensor_id;sensor_type;location;lat;lon;timestamp;pressure;altitude;pressure_sealevel;temperature;humidity
46710;BME280;32442;51.514;-0.178;2022-08-19T00:01:22;101095.91;;;24.60;58.49
46710;BME280;32442;51.514;-0.178;2022-08-19T00:03:58;101081.78;;;24.60;58.63
46710;BME280;32442;51.514;-0.178;2022-08-19T00:06:26;101096.25;;;24.59;58.81
46710;BME280;32442;51.514;-0.178;2022-08-19T00:08:52;101092.25;;;24.60;58.72
46710;BME280;32442;51.514;-0.178;2022-08-19T00:11:19;101091.56;;;24.71;58.66
46710;BME280;32442;51.514;-0.178;2022-08-19T00:13:51;101101.56;;;24.60;58.97
46710;BME280;32442;51.514;-0.178;2022-08-19T00:16:18;101089.75;;;24.67;58.91
46710;BME280;32442;51.514;-0.178;2022-08-19T00:18:52;101097.59;;;24.61;59.38
46710;BME280;32442;51.514;-0.178;2022-08-19T00:21:19;101093.25;;;24.64;59.00
46710;BME280;32442;51.514;-0.178;2022-08-19T00:23:46;101085.09;;;24.62;59.45
46710;BME280;32442;51.514;-0.178;2022-08-19T00:26:13;101088.75;;;24.63;59.59
46710;BME280;32442;51.514;-0.178;2022-08-19T00:28:40;101082.13;;;24.59;59.59
46710;BME280;32442;51.514;-0.178;2022-08-19T00:31:07;101083.28;;;24.58;59.95
46710;BME280;32442;51.514;-0.178;2022-08-19T00:33:34;101078.81;;;24.57;60.02
46710;BME280;32442;51.514;-0.178;2022-08-19T00:36:02;101079.97;;;24.56;60.49
46710;BME280;32442;51.514;-0.178;2022-08-19T00:38:30;101077.47;;;24.54;60.02
46710;BME280;32442;51.514;-0.178;2022-08-19T00:41:04;101075.31;;;24.60;60.24
46710;BME280;32442;51.514;-0.178;2022-08-19T00:43:31;101073.63;;;24.59;60.00
46710;BME280;32442;51.514;-0.178;2022-08-19T00:45:58;101075.47;;;24.55;60.14
46710;BME280;32442;51.514;-0.178;2022-08-19T00:48:29;101069.81;;;24.55;59.94
46710;BME280;32442;51.514;-0.178;2022-08-19T00:50:58;101073.63;;;24.50;60.43
46710;BME280;32442;51.514;-0.178;2022-08-19T00:53:26;101077.63;;;24.58;60.29
46710;BME280;32442;51.514;-0.178;2022-08-19T00:55:55;101075.31;;;24.60;60.20
46710;BME280;32442;51.514;-0.178;2022-08-19T00:58:30;101059.69;;;24.54;60.34
46710;BME280;32442;51.514;-0.178;2022-08-19T01:00:59;101068.97;;;24.54;60.43
46710;BME280;32442;51.514;-0.178;2022-08-19T01:03:26;101067.81;;;24.55;60.43
46710;BME280;32442;51.514;-0.178;2022-08-19T01:05:53;101060.19;;;24.64;60.10
46710;BME280;32442;51.514;-0.178;2022-08-19T01:08:34;101066.16;;;24.54;60.42
46710;BME280;32442;51.514;-0.178;2022-08-19T01:11:01;101062.84;;;24.61;60.34
46710;BME280;32442;51.514;-0.178;2022-08-19T01:13:29;101061.50;;;24.58;60.40
46710;BME280;32442;51.514;-0.178;2022-08-19T01:16:15;101055.00;;;24.58;60.46
46710;BME280;32442;51.514;-0.178;2022-08-19T01:18:43;101057.84;;;24.58;60.48
46710;BME280;32442;51.514;-0.178;2022-08-19T01:21:24;101059.03;;;24.65;60.55
46710;BME280;32442;51.514;-0.178;2022-08-19T01:23:53;101061.34;;;24.55;60.89
46710;BME280;32442;51.514;-0.178;2022-08-19T01:26:21;101054.53;;;24.64;61.07
46710;BME280;32442;51.514;-0.178;2022-08-19T01:28:50;101054.03;;;24.54;60.96
46710;BME280;32442;51.514;-0.178;2022-08-19T01:31:25;101062.84;;;24.52;61.44
46710;BME280;32442;51.514;-0.178;2022-08-19T01:33:54;101062.84;;;24.61;61.22
46710;BME280;32442;51.514;-0.178;2022-08-19T01:36:23;101066.16;;;24.54;61.06
46710;BME280;32442;51.514;-0.178;2022-08-19T01:38:52;101062.03;;;24.52;61.46
46710;BME280;32442;51.514;-0.178;2022-08-19T01:41:19;101051.53;;;24.61;61.48
46710;BME280;32442;51.514;-0.178;2022-08-19T01:43:46;101059.69;;;24.54;61.23
46710;BME280;32442;51.514;-0.178;2022-08-19T01:46:33;101062.00;;;24.60;61.17
46710;BME280;32442;51.514;-0.178;2022-08-19T01:49:01;101053.03;;;24.58;61.53
46710;BME280;32442;51.514;-0.178;2022-08-19T01:51:29;101056.22;;;24.57;61.56
46710;BME280;32442;51.514;-0.178;2022-08-19T01:54:05;101053.84;;;24.59;61.68
46710;BME280;32442;51.514;-0.178;2022-08-19T01:56:32;101055.53;;;24.60;61.85
46710;BME280;32442;51.514;-0.178;2022-08-19T01:59:03;101055.38;;;24.56;61.80
46710;BME280;32442;51.514;-0.178;2022-08-19T02:01:31;101052.72;;;24.51;62.42
46710;BME280;32442;51.514;-0.178;2022-08-19T02:03:59;101053.84;;;24.59;62.40
46710;BME280;32442;51.514;-0.178;2022-08-19T02:06:27;101060.88;;;24.53;62.12
46710;BME280;32442;51.514;-0.178;2022-08-19T02:08:54;101062.84;;;24.52;62.33
46710;BME280;32442;51.514;-0.178;2022-08-19T02:11:24;101056.69;;;24.50;62.44
46710;BME280;32442;51.514;-0.178;2022-08-19T02:13:53;101063.00;;;24.56;62.35
46710;BME280;32442;51.514;-0.178;2022-08-19T02:16:20;101060.19;;;24.56;62.32
46710;BME280;32442;51.514;-0.178;2022-08-19T02:18:47;101060.88;;;24.53;62.23
46710;BME280;32442;51.514;-0.178;2022-08-19T02:21:17;101068.16;;;24.54;62.74
46710;BME280;32442;51.514;-0.178;2022-08-19T02:23:45;101058.03;;;24.53;62.40
46710;BME280;32442;51.514;-0.178;2022-08-19T02:26:12;101059.34;;;24.55;62.23
46710;BME280;32442;51.514;-0.178;2022-08-19T02:28:40;101059.03;;;24.48;63.12
46710;BME280;32442;51.514;-0.178;2022-08-19T02:31:11;101067.66;;;24.52;62.63
46710;BME280;32442;51.514;-0.178;2022-08-19T02:33:38;101057.22;;;24.52;62.65
46710;BME280;32442;51.514;-0.178;2022-08-19T02:36:06;101066.84;;;24.51;62.84
46710;BME280;32442;51.514;-0.178;2022-08-19T02:38:34;101061.84;;;24.57;62.35
46710;BME280;32442;51.514;-0.178;2022-08-19T02:41:06;101070.34;;;24.57;62.33
46710;BME280;32442;51.514;-0.178;2022-08-19T02:43:36;101066.84;;;24.51;62.93
46710;BME280;32442;51.514;-0.178;2022-08-19T02:46:14;101060.34;;;24.51;62.97
46710;BME280;32442;51.514;-0.178;2022-08-19T02:48:41;101070.50;;;24.52;62.41
46710;BME280;32442;51.514;-0.178;2022-08-19T02:51:07;101072.16;;;24.53;62.40
46710;BME280;32442;51.514;-0.178;2022-08-19T02:53:34;101066.00;;;24.51;62.66
46710;BME280;32442;51.514;-0.178;2022-08-19T02:56:05;101067.00;;;24.55;62.77
46710;BME280;32442;51.514;-0.178;2022-08-19T02:58:34;101070.97;;;24.54;62.85
46710;BME280;32442;51.514;-0.178;2022-08-19T03:01:03;101069.81;;;24.55;62.62
46710;BME280;32442;51.514;-0.178;2022-08-19T03:03:30;101065.53;;;24.57;63.15
46710;BME280;32442;51.514;-0.178;2022-08-19T03:06:05;101062.84;;;24.52;63.20
46710;BME280;32442;51.514;-0.178;2022-08-19T03:08:34;101068.50;;;24.52;63.38
46710;BME280;32442;51.514;-0.178;2022-08-19T03:11:02;101073.31;;;24.52;63.39
46710;BME280;32442;51.514;-0.178;2022-08-19T03:13:32;101072.81;;;24.58;63.41
46710;BME280;32442;51.514;-0.178;2022-08-19T03:16:00;101074.16;;;24.52;63.20
46710;BME280;32442;51.514;-0.178;2022-08-19T03:18:32;101070.34;;;24.57;63.26
46710;BME280;32442;51.514;-0.178;2022-08-19T03:21:02;101075.47;;;24.55;63.49
46710;BME280;32442;51.514;-0.178;2022-08-19T03:23:29;101071.81;;;24.63;63.05
46710;BME280;32442;51.514;-0.178;2022-08-19T03:25:56;101075.47;;;24.55;63.80
46710;BME280;32442;51.514;-0.178;2022-08-19T03:28:42;101070.34;;;24.57;63.21
46710;BME280;32442;51.514;-0.178;2022-08-19T03:31:24;101071.16;;;24.57;63.64
46710;BME280;32442;51.514;-0.178;2022-08-19T03:34:12;101065.84;;;24.56;63.71
46710;BME280;32442;51.514;-0.178;2022-08-19T03:36:40;101068.66;;;24.56;63.72
46710;BME280;32442;51.514;-0.178;2022-08-19T03:39:07;101063.19;;;24.51;63.76
46710;BME280;32442;51.514;-0.178;2022-08-19T03:41:39;101064.69;;;24.48;63.62
46710;BME280;32442;51.514;-0.178;2022-08-19T03:44:15;101072.31;;;24.56;63.21
46710;BME280;32442;51.514;-0.178;2022-08-19T03:46:44;101068.81;;;24.51;64.11
46710;BME280;32442;51.514;-0.178;2022-08-19T03:49:11;101084.28;;;24.53;63.45
46710;BME280;32442;51.514;-0.178;2022-08-19T03:51:40;101082.63;;;24.52;63.88
46710;BME280;32442;51.514;-0.178;2022-08-19T03:54:08;101091.09;;;24.52;63.83
46710;BME280;32442;51.514;-0.178;2022-08-19T03:56:35;101088.59;;;24.59;64.03
46710;BME280;32442;51.514;-0.178;2022-08-19T03:59:03;101082.13;;;24.50;64.69
46710;BME280;32442;51.514;-0.178;2022-08-19T04:01:31;101079.63;;;24.49;64.24
46710;BME280;32442;51.514;-0.178;2022-08-19T04:04:00;101081.44;;;24.45;64.45
46710;BME280;32442;51.514;-0.178;2022-08-19T04:06:30;101080.28;;;24.46;65.25
46710;BME280;32442;51.514;-0.178;2022-08-19T04:08:59;101075.78;;;24.53;65.08
46710;BME280;32442;51.514;-0.178;2022-08-19T04:11:28;101076.47;;;24.50;64.95
46710;BME280;32442;51.514;-0.178;2022-08-19T04:14:10;101074.16;;;24.52;65.50
46710;BME280;32442;51.514;-0.178;2022-08-19T04:16:37;101076.63;;;24.45;66.23
46710;BME280;32442;51.514;-0.178;2022-08-19T04:19:04;101077.63;;;24.41;66.44
46710;BME280;32442;51.514;-0.178;2022-08-19T04:21:31;101076.16;;;24.43;66.78
46710;BME280;32442;51.514;-0.178;2022-08-19T04:23:58;101077.97;;;24.48;66.56
46710;BME280;32442;51.514;-0.178;2022-08-19T04:26:27;101080.63;;;24.44;66.76
46710;BME280;32442;51.514;-0.178;2022-08-19T04:28:54;101074.81;;;24.41;66.15
46710;BME280;32442;51.514;-0.178;2022-08-19T04:31:22;101078.81;;;24.48;66.70
46710;BME280;32442;51.514;-0.178;2022-08-19T04:33:52;101086.78;;;24.46;66.33
46710;BME280;32442;51.514;-0.178;2022-08-19T04:36:21;101089.28;;;24.56;66.48
46710;BME280;32442;51.514;-0.178;2022-08-19T04:38:49;101089.75;;;24.41;67.53
46710;BME280;32442;51.514;-0.178;2022-08-19T04:41:16;101082.78;;;24.39;67.52
46710;BME280;32442;51.514;-0.178;2022-08-19T04:44:01;101082.44;;;24.40;67.72
46710;BME280;32442;51.514;-0.178;2022-08-19T04:46:29;101096.09;;;24.38;67.47
46710;BME280;32442;51.514;-0.178;2022-08-19T04:49:16;101091.75;;;24.41;67.20
46710;BME280;32442;51.514;-0.178;2022-08-19T04:51:44;101091.59;;;24.37;67.64
46710;BME280;32442;51.514;-0.178;2022-08-19T04:54:11;101100.56;;;24.39;67.29
46710;BME280;32442;51.514;-0.178;2022-08-19T04:56:39;101092.94;;;24.48;66.94
46710;BME280;32442;51.514;-0.178;2022-08-19T04:59:06;101101.06;;;24.41;66.94
46710;BME280;32442;51.514;-0.178;2022-08-19T05:01:34;101095.09;;;24.43;67.29
46710;BME280;32442;51.514;-0.178;2022-08-19T05:04:03;101095.91;;;24.43;67.25
46710;BME280;32442;51.514;-0.178;2022-08-19T05:06:31;101107.53;;;24.42;67.38
46710;BME280;32442;51.514;-0.178;2022-08-19T05:09:00;101113.88;;;24.56;67.17
46710;BME280;32442;51.514;-0.178;2022-08-19T05:11:29;101107.03;;;24.40;67.23
46710;BME280;32442;51.514;-0.178;2022-08-19T05:13:56;101106.03;;;24.44;67.26
46710;BME280;32442;51.514;-0.178;2022-08-19T05:16:24;101110.69;;;24.40;67.16
46710;BME280;32442;51.514;-0.178;2022-08-19T05:18:51;101118.84;;;24.42;68.05
46710;BME280;32442;51.514;-0.178;2022-08-19T05:21:37;101111.69;;;24.35;67.95
46710;BME280;32442;51.514;-0.178;2022-08-19T05:24:22;101117.69;;;24.34;68.51
46710;BME280;32442;51.514;-0.178;2022-08-19T05:26:50;101126.31;;;24.38;68.12
46710;BME280;32442;51.514;-0.178;2022-08-19T05:29:20;101122.97;;;24.35;68.53
46710;BME280;32442;51.514;-0.178;2022-08-19T05:31:48;101118.50;;;24.34;68.23
46710;BME280;32442;51.514;-0.178;2022-08-19T05:34:18;101127.78;;;24.35;68.25
46710;BME280;32442;51.514;-0.178;2022-08-19T05:36:48;101126.78;;;24.31;68.30
46710;BME280;32442;51.514;-0.178;2022-08-19T05:39:17;101127.63;;;24.31;68.39
46710;BME280;32442;51.514;-0.178;2022-08-19T05:44:39;101127.31;;;24.33;68.02
46710;BME280;32442;51.514;-0.178;2022-08-19T05:47:10;101120.00;;;24.41;67.80
46710;BME280;32442;51.514;-0.178;2022-08-19T05:49:40;101117.00;;;24.37;68.00
46710;BME280;32442;51.514;-0.178;2022-08-19T05:52:11;101146.22;;;24.24;68.61
46710;BME280;32442;51.514;-0.178;2022-08-19T05:54:43;101137.09;;;24.27;68.03
46710;BME280;32442;51.514;-0.178;2022-08-19T05:57:13;101124.16;;;24.34;66.97
46710;BME280;32442;51.514;-0.178;2022-08-19T05:59:40;101118.31;;;24.40;66.92
46710;BME280;32442;51.514;-0.178;2022-08-19T06:02:08;101124.31;;;24.38;67.06
46710;BME280;32442;51.514;-0.178;2022-08-19T06:04:34;101132.13;;;24.32;66.90
46710;BME280;32442;51.514;-0.178;2022-08-19T06:07:01;101133.13;;;24.36;66.32
46710;BME280;32442;51.514;-0.178;2022-08-19T06:09:37;101136.09;;;24.40;65.25
46710;BME280;32442;51.514;-0.178;2022-08-19T06:12:04;101140.13;;;24.39;65.91
46710;BME280;32442;51.514;-0.178;2022-08-19T06:14:32;101139.75;;;24.32;64.54
46710;BME280;32442;51.514;-0.178;2022-08-19T06:17:05;101155.53;;;24.33;64.65
46710;BME280;32442;51.514;-0.178;2022-08-19T06:19:32;101146.06;;;24.29;65.16
46710;BME280;32442;51.514;-0.178;2022-08-19T06:22:06;101148.41;;;24.35;64.52
46710;BME280;32442;51.514;-0.178;2022-08-19T06:24:32;101138.44;;;24.29;64.32
46710;BME280;32442;51.514;-0.178;2022-08-19T06:27:00;101151.19;;;24.27;63.89
46710;BME280;32442;51.514;-0.178;2022-08-19T06:29:27;101152.34;;;24.26;63.91
46710;BME280;32442;51.514;-0.178;2022-08-19T06:31:57;101137.09;;;24.27;63.22
46710;BME280;32442;51.514;-0.178;2022-08-19T06:34:25;101139.22;;;24.21;63.19
46710;BME280;32442;51.514;-0.178;2022-08-19T06:36:54;101146.06;;;24.29;62.49
46710;BME280;32442;51.514;-0.178;2022-08-19T06:39:25;101136.41;;;24.21;63.07
46710;BME280;32442;51.514;-0.178;2022-08-19T06:41:53;101150.22;;;24.31;61.83
46710;BME280;32442;51.514;-0.178;2022-08-19T06:44:24;101154.69;;;24.24;62.07
46710;BME280;32442;51.514;-0.178;2022-08-19T06:46:53;101153.19;;;24.26;61.42
46710;BME280;32442;51.514;-0.178;2022-08-19T06:49:20;101163.84;;;24.21;61.88
46710;BME280;32442;51.514;-0.178;2022-08-19T06:51:47;101158.53;;;24.28;61.61
46710;BME280;32442;51.514;-0.178;2022-08-19T06:54:17;101156.69;;;24.23;60.97
46710;BME280;32442;51.514;-0.178;2022-08-19T06:56:45;101162.34;;;24.23;61.10
46710;BME280;32442;51.514;-0.178;2022-08-19T06:59:13;101167.47;;;24.21;60.71
46710;BME280;32442;51.514;-0.178;2022-08-19T07:01:51;101167.97;;;24.23;60.90
46710;BME280;32442;51.514;-0.178;2022-08-19T07:04:19;101157.53;;;24.24;61.10
46710;BME280;32442;51.514;-0.178;2022-08-19T07:06:46;101166.97;;;24.19;60.77
46710;BME280;32442;51.514;-0.178;2022-08-19T07:09:20;101171.81;;;24.27;59.83
46710;BME280;32442;51.514;-0.178;2022-08-19T07:11:48;101173.16;;;24.30;60.08
46710;BME280;32442;51.514;-0.178;2022-08-19T07:14:17;101181.44;;;24.26;60.37
46710;BME280;32442;51.514;-0.178;2022-08-19T07:16:46;101168.81;;;24.24;60.08
46710;BME280;32442;51.514;-0.178;2022-08-19T07:19:14;101182.94;;;24.24;59.78
46710;BME280;32442;51.514;-0.178;2022-08-19T07:21:44;101180.09;;;24.24;59.80
46710;BME280;32442;51.514;-0.178;2022-08-19T07:24:12;101174.31;;;24.29;60.05
46710;BME280;32442;51.514;-0.178;2022-08-19T07:26:40;101185.94;;;24.27;59.88
46710;BME280;32442;51.514;-0.178;2022-08-19T07:29:07;101178.44;;;24.23;60.00
46710;BME280;32442;51.514;-0.178;2022-08-19T07:31:34;101175.44;;;24.19;59.86
46710;BME280;32442;51.514;-0.178;2022-08-19T07:34:09;101179.53;;;24.13;60.07
46710;BME280;32442;51.514;-0.178;2022-08-19T07:36:38;101172.31;;;24.21;59.25
46710;BME280;32442;51.514;-0.178;2022-08-19T07:39:08;101175.75;;;24.18;59.77
46710;BME280;32442;51.514;-0.178;2022-08-19T07:41:35;101180.38;;;24.14;59.61
46710;BME280;32442;51.514;-0.178;2022-08-19T07:44:04;101176.03;;;24.08;59.33
46710;BME280;32442;51.514;-0.178;2022-08-19T07:46:32;101180.56;;;24.17;59.20
46710;BME280;32442;51.514;-0.178;2022-08-19T07:48:59;101177.22;;;24.15;59.04
46710;BME280;32442;51.514;-0.178;2022-08-19T07:51:27;101184.09;;;24.23;58.81
46710;BME280;32442;51.514;-0.178;2022-08-19T07:54:02;101186.22;;;24.17;58.37
46710;BME280;32442;51.514;-0.178;2022-08-19T07:56:29;101173.91;;;24.13;59.08
46710;BME280;32442;51.514;-0.178;2022-08-19T07:58:56;101173.91;;;24.13;58.82
46710;BME280;32442;51.514;-0.178;2022-08-19T08:01:24;101174.41;;;24.15;58.78
46710;BME280;32442;51.514;-0.178;2022-08-19T08:03:52;101170.75;;;24.15;58.56
46710;BME280;32442;51.514;-0.178;2022-08-19T08:06:37;101183.75;;;24.16;58.44
46710;BME280;32442;51.514;-0.178;2022-08-19T08:09:25;101176.72;;;24.13;57.98
46710;BME280;32442;51.514;-0.178;2022-08-19T08:11:55;101185.00;;;24.10;58.43
46710;BME280;32442;51.514;-0.178;2022-08-19T08:14:28;101188.53;;;24.15;57.82
46710;BME280;32442;51.514;-0.178;2022-08-19T08:17:04;101197.97;;;24.11;56.77
46710;BME280;32442;51.514;-0.178;2022-08-19T08:19:36;101203.50;;;24.16;57.20
46710;BME280;32442;51.514;-0.178;2022-08-19T08:22:03;101198.28;;;24.09;56.11
46710;BME280;32442;51.514;-0.178;2022-08-19T08:24:33;101203.50;;;24.16;55.81
46710;BME280;32442;51.514;-0.178;2022-08-19T08:27:00;101207.91;;;24.08;55.30
46710;BME280;32442;51.514;-0.178;2022-08-19T08:29:28;101196.06;;;24.20;55.06
46710;BME280;32442;51.514;-0.178;2022-08-19T08:32:00;101208.44;;;24.10;55.31
46710;BME280;32442;51.514;-0.178;2022-08-19T08:34:26;101196.13;;;24.06;55.05
46710;BME280;32442;51.514;-0.178;2022-08-19T08:36:53;101210.41;;;24.01;55.74
46710;BME280;32442;51.514;-0.178;2022-08-19T08:39:20;101212.38;;;24.01;55.65
46710;BME280;32442;51.514;-0.178;2022-08-19T08:44:16;101202.41;;;24.03;54.92
46710;BME280;32442;51.514;-0.178;2022-08-19T08:46:49;101205.59;;;24.02;54.40
46710;BME280;32442;51.514;-0.178;2022-08-19T08:49:20;101211.22;;;24.02;54.06
46710;BME280;32442;51.514;-0.178;2022-08-19T08:52:13;101217.72;;;24.02;53.48
46710;BME280;32442;51.514;-0.178;2022-08-19T08:54:39;101213.06;;;24.06;53.20
46710;BME280;32442;51.514;-0.178;2022-08-19T08:57:27;101203.59;;;24.02;52.94
46710;BME280;32442;51.514;-0.178;2022-08-19T09:00:06;101212.38;;;24.01;52.55
46710;BME280;32442;51.514;-0.178;2022-08-19T09:02:41;101211.41;;;24.05;52.67
46710;BME280;32442;51.514;-0.178;2022-08-19T09:05:09;101203.78;;;24.06;52.56
46710;BME280;32442;51.514;-0.178;2022-08-19T09:08:02;101192.66;;;24.09;52.31
46710;BME280;32442;51.514;-0.178;2022-08-19T09:15:36;101185.00;;;24.10;52.44
46710;BME280;32442;51.514;-0.178;2022-08-19T09:18:05;101202.25;;;24.00;52.47
46710;BME280;32442;51.514;-0.178;2022-08-19T09:20:40;101203.25;;;24.04;52.31
46710;BME280;32442;51.514;-0.178;2022-08-19T09:23:08;101192.47;;;24.06;52.14
46710;BME280;32442;51.514;-0.178;2022-08-19T09:25:35;101192.66;;;24.09;52.01
46710;BME280;32442;51.514;-0.178;2022-08-19T09:28:02;101186.50;;;24.07;52.11
46710;BME280;32442;51.514;-0.178;2022-08-19T09:30:45;101191.13;;;24.03;52.50
46710;BME280;32442;51.514;-0.178;2022-08-19T09:33:12;101200.94;;;24.06;52.13
46710;BME280;32442;51.514;-0.178;2022-08-19T09:35:38;101193.81;;;24.08;52.21
46710;BME280;32442;51.514;-0.178;2022-08-19T09:38:18;101191.13;;;24.03;52.43
46710;BME280;32442;51.514;-0.178;2022-08-19T09:40:46;101189.28;;;23.99;52.31
46710;BME280;32442;51.514;-0.178;2022-08-19T09:43:12;101184.16;;;24.01;52.36
46710;BME280;32442;51.514;-0.178;2022-08-19T09:45:39;101181.66;;;23.99;52.44
46710;BME280;32442;51.514;-0.178;2022-08-19T09:48:06;101192.16;;;24.07;51.77
46710;BME280;32442;51.514;-0.178;2022-08-19T09:50:34;101187.00;;;24.09;52.11
46710;BME280;32442;51.514;-0.178;2022-08-19T09:53:17;101199.59;;;24.03;52.09
46710;BME280;32442;51.514;-0.178;2022-08-19T09:55:44;101184.00;;;24.06;52.17
46710;BME280;32442;51.514;-0.178;2022-08-19T09:58:11;101176.84;;;24.08;51.76
46710;BME280;32442;51.514;-0.178;2022-08-19T10:00:38;101189.00;;;24.09;51.37
46710;BME280;32442;51.514;-0.178;2022-08-19T10:03:04;101190.66;;;24.10;51.67
46710;BME280;32442;51.514;-0.178;2022-08-19T10:05:33;101191.63;;;24.05;51.38
46710;BME280;32442;51.514;-0.178;2022-08-19T10:08:19;101206.22;;;23.99;51.54
46710;BME280;32442;51.514;-0.178;2022-08-19T10:10:49;101205.09;;;24.08;51.54
46710;BME280;32442;51.514;-0.178;2022-08-19T10:13:17;101193.31;;;24.06;51.81
46710;BME280;32442;51.514;-0.178;2022-08-19T10:15:48;101198.28;;;24.09;51.54
46710;BME280;32442;51.514;-0.178;2022-08-19T10:18:17;101198.47;;;24.13;51.62
46710;BME280;32442;51.514;-0.178;2022-08-19T10:20:45;101211.25;;;24.10;52.01
46710;BME280;32442;51.514;-0.178;2022-08-19T10:23:17;101210.75;;;24.08;51.98
46710;BME280;32442;51.514;-0.178;2022-08-19T10:25:44;101209.41;;;24.06;52.17
46710;BME280;32442;51.514;-0.178;2022-08-19T10:28:13;101210.25;;;24.06;51.98
46710;BME280;32442;51.514;-0.178;2022-08-19T10:30:40;101209.25;;;24.02;52.35
46710;BME280;32442;51.514;-0.178;2022-08-19T10:33:07;101218.72;;;24.06;52.00
46710;BME280;32442;51.514;-0.178;2022-08-19T10:35:36;101209.41;;;24.06;51.93
46710;BME280;32442;51.514;-0.178;2022-08-19T10:38:22;101200.94;;;24.06;51.93
46710;BME280;32442;51.514;-0.178;2022-08-19T10:40:57;101209.72;;;24.04;51.93
46710;BME280;32442;51.514;-0.178;2022-08-19T10:43:24;101201.81;;;24.15;51.55
46710;BME280;32442;51.514;-0.178;2022-08-19T10:45:51;101197.97;;;24.11;51.42
46710;BME280;32442;51.514;-0.178;2022-08-19T10:48:20;101210.09;;;24.11;51.42
46710;BME280;32442;51.514;-0.178;2022-08-19T10:50:47;101200.34;;;24.17;51.23
46710;BME280;32442;51.514;-0.178;2022-08-19T10:53:33;101195.53;;;24.18;50.63
46710;BME280;32442;51.514;-0.178;2022-08-19T10:56:10;101204.84;;;24.18;50.24
46710;BME280;32442;51.514;-0.178;2022-08-19T10:58:55;101203.19;;;24.26;49.60
46710;BME280;32442;51.514;-0.178;2022-08-19T11:01:24;101217.50;;;24.21;49.96
46710;BME280;32442;51.514;-0.178;2022-08-19T11:03:51;101212.31;;;24.23;49.73
46710;BME280;32442;51.514;-0.178;2022-08-19T11:06:18;101218.28;;;24.21;49.27
46710;BME280;32442;51.514;-0.178;2022-08-19T11:08:46;101232.25;;;24.18;49.27
46710;BME280;32442;51.514;-0.178;2022-08-19T11:11:13;101216.31;;;24.22;48.62
46710;BME280;32442;51.514;-0.178;2022-08-19T11:13:42;101216.97;;;24.19;48.75
46710;BME280;32442;51.514;-0.178;2022-08-19T11:16:13;101214.16;;;24.19;48.56
46710;BME280;32442;51.514;-0.178;2022-08-19T11:18:42;101216.13;;;24.18;47.97
46710;BME280;32442;51.514;-0.178;2022-08-19T11:23:41;101221.78;;;24.18;47.57
46710;BME280;32442;51.514;-0.178;2022-08-19T11:26:10;101222.97;;;24.26;47.31
46710;BME280;32442;51.514;-0.178;2022-08-19T11:28:37;101220.09;;;24.17;46.73
46710;BME280;32442;51.514;-0.178;2022-08-19T11:31:09;101213.31;;;24.18;46.57
46710;BME280;32442;51.514;-0.178;2022-08-19T11:33:42;101212.81;;;24.16;46.00
46710;BME280;32442;51.514;-0.178;2022-08-19T11:36:13;101214.16;;;24.19;45.89
46710;BME280;32442;51.514;-0.178;2022-08-19T11:38:40;101219.97;;;24.22;45.59
46710;BME280;32442;51.514;-0.178;2022-08-19T11:41:07;101218.63;;;24.20;45.76
46710;BME280;32442;51.514;-0.178;2022-08-19T11:43:38;101227.44;;;24.18;46.03
46710;BME280;32442;51.514;-0.178;2022-08-19T11:46:10;101225.97;;;24.21;45.60
46710;BME280;32442;51.514;-0.178;2022-08-19T11:48:38;101234.25;;;24.26;45.02
46710;BME280;32442;51.514;-0.178;2022-08-19T11:51:08;101232.63;;;24.25;44.72
46710;BME280;32442;51.514;-0.178;2022-08-19T11:53:41;101228.28;;;24.27;45.41
46710;BME280;32442;51.514;-0.178;2022-08-19T11:56:09;101221.34;;;24.33;45.07
46710;BME280;32442;51.514;-0.178;2022-08-19T11:58:36;101231.97;;;24.36;44.51
46710;BME280;32442;51.514;-0.178;2022-08-19T12:01:07;101227.16;;;24.37;43.99
46710;BME280;32442;51.514;-0.178;2022-08-19T12:03:41;101229.66;;;24.39;44.62
46710;BME280;32442;51.514;-0.178;2022-08-19T12:06:10;101216.69;;;24.38;44.08
46710;BME280;32442;51.514;-0.178;2022-08-19T12:08:39;101229.66;;;24.39;44.25
46710;BME280;32442;51.514;-0.178;2022-08-19T12:11:06;101214.72;;;24.38;42.94
46710;BME280;32442;51.514;-0.178;2022-08-19T12:13:41;101224.00;;;24.39;42.71
46710;BME280;32442;51.514;-0.178;2022-08-19T12:16:15;101220.22;;;24.43;42.87
46710;BME280;32442;51.514;-0.178;2022-08-19T12:18:42;101216.03;;;24.41;44.43
46710;BME280;32442;51.514;-0.178;2022-08-19T12:21:13;101223.34;;;24.42;43.89
46710;BME280;32442;51.514;-0.178;2022-08-19T12:23:42;101223.34;;;24.42;43.45
46710;BME280;32442;51.514;-0.178;2022-08-19T12:26:18;101232.34;;;24.44;42.95
46710;BME280;32442;51.514;-0.178;2022-08-19T12:28:44;101226.34;;;24.45;42.20
46710;BME280;32442;51.514;-0.178;2022-08-19T12:31:11;101228.34;;;24.45;43.81
46710;BME280;32442;51.514;-0.178;2022-08-19T12:33:42;101221.53;;;24.46;41.94
46710;BME280;32442;51.514;-0.178;2022-08-19T12:36:14;101221.22;;;24.47;42.87
46710;BME280;32442;51.514;-0.178;2022-08-19T12:38:41;101222.69;;;24.45;40.80
46710;BME280;32442;51.514;-0.178;2022-08-19T12:41:10;101227.19;;;24.46;42.22
46710;BME280;32442;51.514;-0.178;2022-08-19T12:43:42;101219.72;;;24.50;41.61
46710;BME280;32442;51.514;-0.178;2022-08-19T12:46:09;101220.22;;;24.43;41.51
46710;BME280;32442;51.514;-0.178;2022-08-19T12:48:36;101226.84;;;24.47;41.29
46710;BME280;32442;51.514;-0.178;2022-08-19T12:51:08;101217.41;;;24.52;41.88
46710;BME280;32442;51.514;-0.178;2022-08-19T12:53:42;101214.75;;;24.55;41.22
46710;BME280;32442;51.514;-0.178;2022-08-19T12:56:10;101228.19;;;24.58;40.97
46710;BME280;32442;51.514;-0.178;2022-08-19T12:58:38;101219.41;;;24.60;40.85
46710;BME280;32442;51.514;-0.178;2022-08-19T13:01:09;101227.88;;;24.60;40.47
46710;BME280;32442;51.514;-0.178;2022-08-19T13:03:44;101219.09;;;24.61;39.76
46710;BME280;32442;51.514;-0.178;2022-08-19T13:06:11;101214.91;;;24.59;39.35
46710;BME280;32442;51.514;-0.178;2022-08-19T13:08:38;101213.75;;;24.60;40.97